DON PEDRO RESERVOIR (DNP)

Elevation: 830' · TUOLUMNE R basin · Operator: Turlock Irrigation District


Station comments:

04/19/2016Reservoir elevation data is now being collected from the USGS site.


Provisional data, subject to change.
Query executed Wednesday at 6:39:21   clock

Select a sensor type for a plot of data.
Note: Reservoir Flows are daily averages.

Earlier

Date RES ELE    STORAGE    RES CHG    TOC STO    ABV TOC    OUTFLOW    INFLOW    PPT INC   
 FEET   AF   AF   AF   AF   CFS   CFS   INCHES  
08/29/2016 771.22 1370663 -2784 2030000 -659337 1672 220 0.00
08/30/2016 771.06 1369704 -1534 2030000 -660296 1349 866 0.00
08/31/2016 770.76 1366830 -3352 2030000 -663170 1988 539 0.00
09/01/2016 770.39 1363006 -3919 2030000 -667089 2274 346 0.00
09/02/2016 770.07 1360143 -3146 2030000 -- 2116 672 0.00
09/03/2016 769.77 1357285 -2956 2030000 -- 1975 535 0.00
09/04/2016 769.65 1355382 -951 2030000 -- 994 34 0.00
09/05/2016 769.54 1354431 -1142 2030000 -675569 1064 585 0.00
09/06/2016 769.26 1352531 -2280 2030000 -677469 1845 887 0.00
09/07/2016 769.00 1349685 -2751 2030000 -680315 1706 271 0.00
09/08/2016 768.93 1348737 -379 2018276 -669539 736 258 0.00
09/09/2016 768.81 1347790 -758 2006552 -- 1092 615 0.00
09/10/2016 768.75 1346844 -567 1994828 -- 773 296 0.00
09/11/2016 768.64 1345897 -947 1983103 -637206 819 341 0.00
09/12/2016 768.56 1345897 -189 1971379 -625482 705 705 0.00
09/13/2016 768.39 1344007 -1795 1959655 -615648 1382 429 0.00
09/14/2016 768.19 1342118 -1700 1947931 -605813 1331 379 0.00
09/15/2016 768.02 1340231 -1321 1936207 -595976 1194 243 0.00
09/16/2016 767.88 1339288 -849 1924483 -- 1136 661 0.00
09/17/2016 767.80 1338346 -753 1912759 -- 848 373 0.00
09/18/2016 767.64 1336463 -1507 1901034 -564572 1071 122 0.00
09/19/2016 767.40 1334583 -1692 1889310 -554539 1573 625 0.00
09/20/2016 767.17 1332704 -1973 1877586 -544882 1439 492 0.00
09/21/2016 767.11 1331765 -376 1865862 -534097 605 132 0.00
09/22/2016 767.13 1331765 563 1854138 -522373 388 388 0.00
09/23/2016 767.03 1330827 -375 1842414 -- 817 344 0.00
09/24/2016 766.93 1329890 -938 1830690 -- 891 418 0.00
09/25/2016 766.69 1328016 -2155 1818966 -490950 1666 721 0.00
09/26/2016 766.42 1325209 -2152 1807241 -482032 1705 290 0.00
09/27/2016 766.28 1324088 -1121 -- -- -- -- --
09/28/2016 -- -- -- -- -- -- -- --

Later | Latest

Warning! This data is preliminary and subject to revision.

Show DNP Map | Plot DNP Data | 1 Month DNP Data | Real-Time DNP Data | DNP Info